Time;durP1;ratioP1;P1;durP2;ratioP2;P2;SDS_P1;SDS_P2;PMS_P1;PMS_P2;Temp;Humidity;BMP_temperature;BMP_pressure;BME280_temperature;BME280_humidity;BME280_pressure;Samples;Min_cycle;Max_cycle;Signal;HPM_P1;HPM_P2
2023/08/18 00:00:07;;;;;;;22.75;11.98;;;17.00;99.90;;;;;;5060369;28;20222;-81
2023/08/18 00:02:34;;;;;;;17.27;12.30;;;17.10;99.90;;;;;;5059482;28;20214;-83
2023/08/18 00:05:01;;;;;;;22.63;13.88;;;17.10;99.90;;;;;;5065180;28;20208;-82
2023/08/18 00:07:28;;;;;;;25.25;14.02;;;17.10;99.90;;;;;;5077303;28;20251;-82
2023/08/18 00:09:56;;;;;;;20.33;13.57;;;17.10;99.90;;;;;;5078956;28;20301;-83
2023/08/18 00:12:23;;;;;;;24.27;15.57;;;17.10;99.90;;;;;;5079002;28;20204;-82
2023/08/18 00:14:51;;;;;;;22.55;14.57;;;17.20;99.90;;;;;;5080462;28;20304;-82
2023/08/18 00:17:18;;;;;;;24.25;14.85;;;17.10;99.90;;;;;;5071652;28;20211;-83
2023/08/18 00:19:45;;;;;;;22.75;13.88;;;17.00;99.90;;;;;;5078972;28;20309;-82
2023/08/18 00:22:12;;;;;;;25.65;15.75;;;17.20;99.90;;;;;;5080263;28;20210;-82
2023/08/18 00:24:39;;;;;;;23.38;16.35;;;17.20;99.90;;;;;;5080265;28;20216;-83
2023/08/18 00:27:07;;;;;;;21.83;14.75;;;17.10;99.90;;;;;;5075062;28;20207;-83
2023/08/18 00:29:34;;;;;;;22.77;14.50;;;17.10;99.90;;;;;;5080281;28;20248;-83
2023/08/18 00:32:01;;;;;;;21.08;13.88;;;17.20;99.90;;;;;;5074757;28;20210;-83
2023/08/18 00:34:28;;;;;;;22.73;14.50;;;17.20;99.90;;;;;;5058666;28;20217;-83
2023/08/18 00:36:56;;;;;;;27.92;15.77;;;17.20;99.90;;;;;;5068560;28;20774;-82
2023/08/18 00:39:23;;;;;;;28.15;15.90;;;17.10;99.90;;;;;;5060617;28;20233;-83
2023/08/18 00:41:50;;;;;;;26.70;15.45;;;17.10;99.90;;;;;;5059774;28;20275;-83
2023/08/18 00:44:18;;;;;;;25.05;16.02;;;17.10;99.90;;;;;;5067045;28;20331;-82
2023/08/18 00:46:45;;;;;;;25.10;16.23;;;17.10;99.90;;;;;;5066982;28;20202;-82
2023/08/18 00:49:12;;;;;;;27.08;15.68;;;17.10;99.90;;;;;;5077975;28;20218;-82
2023/08/18 00:51:40;;;;;;;26.48;16.17;;;17.10;99.90;;;;;;5071113;28;20286;-82
2023/08/18 00:54:08;;;;;;;27.35;15.63;;;17.10;99.90;;;;;;5059826;28;20211;-82
2023/08/18 00:56:35;;;;;;;24.73;15.80;;;17.10;99.90;;;;;;5094077;28;20198;-82
2023/08/18 00:59:05;;;;;;;25.77;16.08;;;17.10;99.90;;;;;;5074015;28;20710;-83
2023/08/18 01:01:34;;;;;;;23.80;15.38;;;17.00;99.90;;;;;;5079496;28;20210;-82
2023/08/18 01:04:02;;;;;;;24.70;15.20;;;17.00;99.90;;;;;;5078552;28;20198;-82
2023/08/18 01:06:29;;;;;;;27.42;16.30;;;17.10;99.90;;;;;;5077296;28;20248;-82
2023/08/18 01:08:56;;;;;;;27.92;17.13;;;17.00;99.90;;;;;;5073841;28;20214;-81
2023/08/18 01:11:32;;;;;;;30.83;16.50;;;17.00;99.90;;;;;;5073301;28;20194;-82
2023/08/18 01:14:07;;;;;;;29.52;18.35;;;17.00;99.90;;;;;;5068994;28;20270;-82
2023/08/18 01:16:37;;;;;;;27.80;16.25;;;17.00;99.90;;;;;;5073316;28;20237;-83
2023/08/18 01:19:08;;;;;;;24.30;15.45;;;16.90;99.90;;;;;;5058239;28;20223;-82
2023/08/18 01:21:36;;;;;;;25.98;16.73;;;16.90;99.90;;;;;;5057619;28;20278;-82
2023/08/18 01:24:06;;;;;;;26.60;15.60;;;16.90;99.90;;;;;;5057653;28;20205;-83
2023/08/18 01:26:33;;;;;;;23.70;15.27;;;16.90;99.90;;;;;;5059387;28;20213;-83
2023/08/18 01:29:00;;;;;;;27.42;15.50;;;16.90;99.90;;;;;;5075371;28;20209;-83
2023/08/18 01:31:32;;;;;;;26.02;16.33;;;16.90;99.90;;;;;;5078331;28;20198;-83
2023/08/18 01:34:02;;;;;;;26.48;17.10;;;16.90;99.90;;;;;;5078251;28;20191;-82
2023/08/18 01:36:32;;;;;;;26.42;16.27;;;16.90;99.90;;;;;;5080353;28;20278;-82
2023/08/18 01:39:01;;;;;;;30.40;16.55;;;16.90;99.90;;;;;;5068942;28;20267;-82
2023/08/18 01:41:31;;;;;;;28.23;16.75;;;16.90;99.90;;;;;;5079272;28;20206;-82
2023/08/18 01:44:00;;;;;;;26.70;15.45;;;16.90;99.90;;;;;;5088956;28;20254;-82
2023/08/18 01:46:27;;;;;;;28.58;15.90;;;16.90;99.90;;;;;;5062322;28;20286;-81
2023/08/18 01:48:54;;;;;;;29.23;16.27;;;16.90;99.90;;;;;;5073192;28;20297;-83
2023/08/18 01:51:21;;;;;;;29.33;17.80;;;17.00;99.90;;;;;;5072881;28;20257;-82
2023/08/18 01:53:47;;;;;;;29.77;18.00;;;16.90;99.90;;;;;;5078447;28;20281;-82
2023/08/18 01:56:14;;;;;;;27.77;16.92;;;16.90;99.90;;;;;;5079080;28;20198;-82
2023/08/18 01:58:43;;;;;;;27.95;17.25;;;16.80;99.90;;;;;;5075066;28;20238;-82
2023/08/18 02:01:09;;;;;;;33.17;17.70;;;16.80;99.90;;;;;;5078020;28;20186;-83
2023/08/18 02:03:36;;;;;;;30.83;17.02;;;16.80;99.90;;;;;;5079514;28;20218;-83
2023/08/18 02:06:03;;;;;;;31.33;16.75;;;16.80;99.90;;;;;;5078768;28;20266;-83
2023/08/18 02:08:30;;;;;;;30.63;16.85;;;16.90;99.90;;;;;;5078570;28;20240;-83
2023/08/18 02:11:02;;;;;;;29.17;17.05;;;16.90;99.90;;;;;;5079265;28;20398;-83
2023/08/18 02:13:29;;;;;;;29.88;18.15;;;16.90;99.90;;;;;;5079463;28;20672;-83
2023/08/18 02:15:57;;;;;;;28.95;16.73;;;16.90;99.90;;;;;;5079717;28;20586;-82
2023/08/18 02:18:24;;;;;;;30.88;18.05;;;16.90;99.90;;;;;;5077369;28;20240;-82
2023/08/18 02:20:55;;;;;;;31.85;18.67;;;17.00;99.90;;;;;;5058501;28;20207;-82
2023/08/18 02:23:22;;;;;;;30.52;18.05;;;16.80;99.90;;;;;;5057721;28;20203;-82
2023/08/18 02:25:49;;;;;;;28.38;17.85;;;16.90;99.90;;;;;;5067568;28;20202;-82
2023/08/18 02:28:17;;;;;;;34.25;19.90;;;16.90;99.90;;;;;;5070656;28;20206;-82
2023/08/18 02:30:44;;;;;;;32.17;18.77;;;16.80;99.90;;;;;;5077566;28;20241;-82
2023/08/18 02:33:12;;;;;;;37.35;19.52;;;16.80;99.90;;;;;;5078056;28;20198;-81
2023/08/18 02:35:42;;;;;;;30.70;18.58;;;16.80;99.90;;;;;;5081054;28;20212;-82
2023/08/18 02:38:10;;;;;;;32.38;20.20;;;16.90;99.90;;;;;;5080307;28;20225;-82
2023/08/18 02:40:37;;;;;;;36.67;18.95;;;16.80;99.90;;;;;;5080346;28;20198;-82
2023/08/18 02:43:04;;;;;;;30.33;18.95;;;16.90;99.90;;;;;;5081961;28;20555;-82
2023/08/18 02:45:31;;;;;;;30.35;18.88;;;16.90;99.90;;;;;;5081884;28;20204;-82
2023/08/18 02:47:58;;;;;;;31.58;18.80;;;16.80;99.90;;;;;;5081366;28;20202;-82
2023/08/18 02:50:26;;;;;;;31.30;18.30;;;16.80;99.90;;;;;;5072508;28;20219;-82
2023/08/18 02:52:53;;;;;;;32.17;19.42;;;16.80;99.90;;;;;;5072541;28;20584;-82
2023/08/18 02:55:19;;;;;;;31.25;20.67;;;16.80;99.90;;;;;;5076405;28;20210;-82
2023/08/18 02:57:46;;;;;;;36.15;20.88;;;16.70;99.90;;;;;;5062552;28;20295;-82
2023/08/18 03:00:14;;;;;;;35.88;21.00;;;16.70;99.90;;;;;;5076022;28;20218;-81
2023/08/18 03:02:41;;;;;;;36.85;22.17;;;16.80;99.90;;;;;;5064081;28;20234;-82
2023/08/18 03:05:09;;;;;;;38.03;21.80;;;16.80;99.90;;;;;;5059588;28;20275;-82
2023/08/18 03:07:37;;;;;;;34.85;20.95;;;16.70;99.90;;;;;;5059718;28;20210;-82
2023/08/18 03:10:04;;;;;;;41.03;22.45;;;16.70;99.90;;;;;;5059379;28;20306;-81
2023/08/18 03:12:31;;;;;;;35.65;21.08;;;16.80;99.90;;;;;;5073460;28;20553;-81
2023/08/18 03:14:58;;;;;;;35.92;20.80;;;16.70;99.90;;;;;;5060191;28;20592;-81
2023/08/18 03:17:24;;;;;;;31.63;21.30;;;16.70;99.90;;;;;;5068052;28;20206;-82
2023/08/18 03:19:51;;;;;;;37.42;21.33;;;16.70;99.90;;;;;;5081383;28;20222;-81
2023/08/18 03:22:18;;;;;;;36.22;22.52;;;16.70;99.90;;;;;;5072065;28;20209;-82
2023/08/18 03:24:46;;;;;;;39.60;22.90;;;16.70;99.90;;;;;;5080586;28;20607;-80
2023/08/18 03:27:13;;;;;;;38.20;21.40;;;16.70;99.90;;;;;;5081935;28;20226;-83
2023/08/18 03:29:40;;;;;;;37.83;22.27;;;16.60;99.90;;;;;;5082638;28;20306;-82
2023/08/18 03:32:07;;;;;;;35.85;21.40;;;16.60;99.90;;;;;;5074872;28;20205;-82
2023/08/18 03:34:34;;;;;;;39.33;22.60;;;16.60;99.90;;;;;;5082321;28;20637;-81
2023/08/18 03:37:01;;;;;;;37.33;22.88;;;16.60;99.90;;;;;;5081300;28;20640;-82
2023/08/18 03:39:27;;;;;;;36.42;20.73;;;16.60;99.90;;;;;;5079643;28;20249;-81
2023/08/18 03:41:55;;;;;;;40.47;23.05;;;16.70;99.90;;;;;;5082187;28;20575;-82
2023/08/18 03:44:22;;;;;;;39.67;22.30;;;16.70;99.90;;;;;;5081383;28;20870;-82
2023/08/18 03:46:49;;;;;;;37.15;20.67;;;16.70;99.90;;;;;;5082618;28;20206;-83
2023/08/18 03:49:16;;;;;;;37.20;21.05;;;16.80;99.90;;;;;;5081471;28;20282;-81
2023/08/18 03:51:43;;;;;;;37.78;22.80;;;16.60;99.90;;;;;;5081553;28;20209;-82
2023/08/18 03:54:10;;;;;;;36.50;21.55;;;16.60;99.90;;;;;;5074932;28;20218;-83
2023/08/18 03:56:37;;;;;;;37.55;22.05;;;16.60;99.90;;;;;;5061854;28;20210;-83
2023/08/18 03:59:05;;;;;;;42.38;23.40;;;16.70;99.90;;;;;;5064193;28;20316;-82
2023/08/18 04:01:32;;;;;;;52.38;23.60;;;16.70;99.90;;;;;;5080771;28;20199;-82
2023/08/18 04:04:00;;;;;;;39.08;21.95;;;16.80;99.90;;;;;;5083621;28;20202;-82
2023/08/18 04:06:27;;;;;;;41.60;23.35;;;16.70;99.90;;;;;;5081020;28;20221;-82
2023/08/18 04:09:06;;;;;;;40.55;24.00;;;16.70;99.90;;;;;;5058825;28;20695;-82
2023/08/18 04:11:33;;;;;;;35.10;20.05;;;16.70;99.90;;;;;;5061845;28;20238;-83
2023/08/18 04:13:59;;;;;;;36.60;20.48;;;16.70;99.90;;;;;;5065735;28;20901;-82
2023/08/18 04:16:28;;;;;;;38.97;22.02;;;16.70;99.90;;;;;;5080980;28;20213;-82
2023/08/18 04:18:54;;;;;;;32.97;19.73;;;16.60;99.90;;;;;;5061403;28;20223;-83
2023/08/18 04:21:21;;;;;;;37.15;20.75;;;16.60;99.90;;;;;;5061668;28;20290;-82
2023/08/18 04:23:48;;;;;;;38.67;22.20;;;16.60;99.90;;;;;;5061501;28;20214;-83
2023/08/18 04:26:15;;;;;;;38.83;22.70;;;16.60;99.90;;;;;;5063606;28;20209;-83
2023/08/18 04:28:42;;;;;;;42.00;23.10;;;16.60;99.90;;;;;;5063127;28;20783;-83
2023/08/18 04:31:09;;;;;;;44.00;22.45;;;16.70;99.90;;;;;;5063055;28;20297;-84
2023/08/18 04:33:37;;;;;;;42.70;22.33;;;16.70;99.90;;;;;;5064132;28;20210;-84
2023/08/18 04:36:05;;;;;;;35.33;21.63;;;16.70;99.90;;;;;;5065115;28;20238;-83
2023/08/18 04:38:32;;;;;;;35.33;22.17;;;16.70;99.90;;;;;;5063283;28;20270;-83
2023/08/18 04:40:59;;;;;;;37.22;21.60;;;16.70;99.90;;;;;;5079428;28;20222;-83
2023/08/18 04:43:27;;;;;;;31.27;19.98;;;16.80;99.90;;;;;;5082299;28;20633;-83
2023/08/18 04:45:54;;;;;;;31.50;21.08;;;16.70;99.90;;;;;;5084454;28;20213;-83
2023/08/18 04:48:21;;;;;;;35.10;19.95;;;16.70;99.90;;;;;;5083255;28;20234;-83
2023/08/18 04:50:49;;;;;;;33.85;20.73;;;16.70;99.90;;;;;;5072933;28;20225;-85
2023/08/18 04:53:16;;;;;;;34.65;21.00;;;16.70;99.90;;;;;;5078923;28;20199;-84
2023/08/18 04:55:43;;;;;;;34.17;21.52;;;16.80;99.90;;;;;;5070520;28;20543;-83
2023/08/18 04:58:12;;;;;;;33.80;20.33;;;16.80;99.90;;;;;;5076753;28;20201;-83
2023/08/18 05:00:42;;;;;;;32.30;19.90;;;16.80;99.90;;;;;;5072423;28;20224;-83
2023/08/18 05:03:09;;;;;;;30.67;20.08;;;16.80;99.90;;;;;;5072105;28;20205;-83
2023/08/18 05:05:40;;;;;;;36.30;21.90;;;16.80;99.90;;;;;;5076728;28;20206;-84
2023/08/18 05:08:08;;;;;;;30.92;20.00;;;16.80;99.90;;;;;;5075181;28;20198;-83
2023/08/18 05:10:35;;;;;;;32.67;20.38;;;16.80;99.90;;;;;;5071704;28;20210;-83
2023/08/18 05:13:02;;;;;;;30.00;19.40;;;16.80;99.90;;;;;;5073005;28;20198;-83
2023/08/18 05:15:29;;;;;;;31.10;19.55;;;16.90;99.90;;;;;;5077576;28;20630;-84
2023/08/18 05:17:56;;;;;;;29.33;20.00;;;16.80;99.90;;;;;;5081314;28;20206;-83
2023/08/18 05:20:22;;;;;;;32.13;20.67;;;16.90;99.90;;;;;;5070102;28;20655;-83
2023/08/18 05:22:49;;;;;;;27.08;17.40;;;16.80;99.90;;;;;;5075191;28;20206;-84
2023/08/18 05:25:17;;;;;;;28.30;17.83;;;17.00;99.90;;;;;;5075064;28;20194;-85
2023/08/18 05:27:44;;;;;;;28.30;18.58;;;16.90;99.90;;;;;;5079554;28;20269;-83
2023/08/18 05:30:13;;;;;;;29.40;19.75;;;17.00;99.90;;;;;;5079105;28;20238;-84
2023/08/18 05:32:40;;;;;;;33.58;21.00;;;17.00;99.90;;;;;;5081937;28;20226;-84
2023/08/18 05:35:10;;;;;;;31.33;20.50;;;17.10;99.90;;;;;;5073365;28;20202;-83
2023/08/18 05:37:37;;;;;;;38.65;22.40;;;17.00;99.90;;;;;;5075738;28;20222;-83
2023/08/18 05:40:04;;;;;;;34.55;21.80;;;17.00;99.90;;;;;;5077519;28;20226;-84
2023/08/18 05:42:32;;;;;;;33.70;21.27;;;17.10;99.90;;;;;;5066968;28;20213;-84
2023/08/18 05:44:59;;;;;;;32.05;21.55;;;17.10;99.90;;;;;;5069719;28;20203;-84
2023/08/18 05:47:28;;;;;;;36.53;22.58;;;17.10;99.90;;;;;;5081145;28;20285;-84
2023/08/18 05:49:55;;;;;;;36.80;22.80;;;17.10;99.90;;;;;;5070716;28;20645;-83
2023/08/18 05:52:22;;;;;;;34.58;22.58;;;17.10;99.90;;;;;;5072398;28;20641;-85
2023/08/18 05:54:49;;;;;;;39.40;23.08;;;17.10;99.90;;;;;;5078400;28;20222;-85
2023/08/18 05:57:16;;;;;;;36.70;21.65;;;17.20;99.90;;;;;;5075542;28;20221;-82
2023/08/18 05:59:44;;;;;;;31.83;20.80;;;17.20;99.90;;;;;;5078231;28;20222;-83
2023/08/18 06:02:11;;;;;;;34.33;20.75;;;17.20;99.90;;;;;;5074272;28;20217;-84
2023/08/18 06:04:38;;;;;;;32.65;19.98;;;17.20;99.90;;;;;;5075625;28;20202;-84
2023/08/18 06:07:05;;;;;;;31.65;20.40;;;17.40;99.90;;;;;;5074086;28;20206;-84
2023/08/18 06:09:35;;;;;;;30.55;19.80;;;17.40;99.90;;;;;;5072145;28;20227;-84
2023/08/18 06:12:02;;;;;;;31.80;20.05;;;17.50;99.90;;;;;;5076653;28;20266;-84
2023/08/18 06:14:28;;;;;;;28.95;19.40;;;17.40;99.90;;;;;;5077769;28;20199;-84
2023/08/18 06:16:57;;;;;;;27.90;19.33;;;17.50;99.90;;;;;;5075899;28;20208;-84
2023/08/18 06:19:23;;;;;;;32.63;21.77;;;17.60;99.90;;;;;;5068237;28;20608;-83
2023/08/18 06:21:51;;;;;;;36.67;22.13;;;17.60;99.90;;;;;;5075493;28;20206;-82
2023/08/18 06:24:18;;;;;;;30.63;20.42;;;17.70;99.90;;;;;;5073088;28;20266;-83
2023/08/18 06:26:45;;;;;;;31.55;20.67;;;17.70;99.90;;;;;;5074448;28;20302;-84
2023/08/18 06:29:11;;;;;;;32.15;20.75;;;17.80;99.90;;;;;;5073738;28;20297;-82
2023/08/18 06:31:38;;;;;;;33.33;20.65;;;17.80;99.90;;;;;;5077986;28;20203;-84
2023/08/18 06:34:07;;;;;;;32.33;19.77;;;17.80;99.90;;;;;;5073090;28;20233;-83
2023/08/18 06:36:33;;;;;;;33.40;21.15;;;17.80;99.90;;;;;;5080326;28;20209;-84
2023/08/18 06:39:00;;;;;;;29.25;18.77;;;17.90;99.90;;;;;;5069961;28;20245;-86
2023/08/18 06:41:28;;;;;;;29.90;18.38;;;18.10;99.90;;;;;;5077793;28;20214;-85
2023/08/18 06:43:54;;;;;;;32.97;21.13;;;18.20;99.90;;;;;;5065059;28;20207;-85
2023/08/18 06:46:21;;;;;;;32.63;21.45;;;18.20;99.90;;;;;;5066166;28;21821;-84
2023/08/18 06:48:48;;;;;;;35.97;21.58;;;18.40;99.90;;;;;;5063124;28;20310;-85
2023/08/18 06:51:16;;;;;;;32.33;20.75;;;18.60;99.90;;;;;;5063727;28;20199;-84
2023/08/18 06:53:43;;;;;;;34.70;21.05;;;18.60;99.90;;;;;;5067601;28;20230;-84
2023/08/18 06:56:10;;;;;;;30.98;19.15;;;18.50;99.90;;;;;;5066701;28;20207;-85
2023/08/18 06:58:37;;;;;;;30.05;18.58;;;18.70;99.90;;;;;;5061327;28;20219;-86
2023/08/18 07:01:04;;;;;;;28.48;18.27;;;18.70;99.90;;;;;;5065745;28;20270;-84
2023/08/18 07:03:31;;;;;;;29.80;18.52;;;18.60;99.90;;;;;;5064819;28;20230;-84
2023/08/18 07:05:58;;;;;;;27.10;17.15;;;18.80;99.90;;;;;;5065567;28;20202;-84
2023/08/18 07:08:27;;;;;;;24.65;16.75;;;18.80;99.90;;;;;;5071260;28;20218;-84
2023/08/18 07:10:54;;;;;;;28.67;16.60;;;19.00;99.90;;;;;;5066416;28;20286;-84
2023/08/18 07:13:21;;;;;;;26.70;17.48;;;19.00;99.90;;;;;;5064778;28;20218;-83
2023/08/18 07:15:48;;;;;;;27.63;17.60;;;19.00;99.90;;;;;;5067218;28;20622;-84
2023/08/18 07:18:17;;;;;;;24.20;16.23;;;19.00;99.90;;;;;;5063603;28;20225;-83
2023/08/18 07:20:46;;;;;;;28.20;18.98;;;19.30;99.90;;;;;;5063978;28;20219;-85
2023/08/18 07:23:12;;;;;;;27.73;17.95;;;19.60;99.90;;;;;;5074715;28;20203;-85
2023/08/18 07:25:42;;;;;;;28.48;18.20;;;19.60;99.90;;;;;;5078867;28;20222;-83
2023/08/18 07:28:09;;;;;;;27.98;17.10;;;19.50;99.90;;;;;;5071191;28;20299;-84
2023/08/18 07:30:36;;;;;;;25.30;17.48;;;19.60;99.90;;;;;;5074453;28;20197;-84
2023/08/18 07:33:03;;;;;;;28.92;19.60;;;19.60;99.90;;;;;;5072979;28;20205;-84
2023/08/18 07:35:29;;;;;;;31.77;20.08;;;19.60;99.90;;;;;;5069018;28;20225;-84
2023/08/18 07:37:56;;;;;;;27.05;18.95;;;19.60;99.90;;;;;;5069809;28;20210;-85
2023/08/18 07:40:23;;;;;;;28.35;18.85;;;19.80;99.90;;;;;;5069658;28;20524;-85
2023/08/18 07:42:52;;;;;;;28.08;18.75;;;19.90;99.90;;;;;;5075764;28;20236;-85
2023/08/18 07:45:19;;;;;;;30.00;20.40;;;20.10;99.90;;;;;;5071060;28;20337;-86
2023/08/18 07:47:46;;;;;;;27.13;19.15;;;20.10;99.90;;;;;;5082197;28;20209;-85
2023/08/18 07:50:13;;;;;;;24.45;17.90;;;20.30;99.90;;;;;;5076285;28;20215;-85
2023/08/18 07:52:41;;;;;;;26.67;18.55;;;20.40;99.90;;;;;;5079543;28;20572;-84
2023/08/18 07:55:09;;;;;;;26.45;17.25;;;20.70;99.90;;;;;;5080532;28;20194;-86
2023/08/18 07:57:36;;;;;;;26.90;18.95;;;20.70;99.90;;;;;;5069962;28;20191;-85
2023/08/18 08:00:08;;;;;;;24.80;17.88;;;20.50;99.90;;;;;;5077559;28;20226;-86
2023/08/18 08:02:36;;;;;;;26.98;18.65;;;20.70;99.90;;;;;;5080453;28;20217;-83
2023/08/18 08:05:05;;;;;;;27.52;19.92;;;20.60;99.90;;;;;;5072292;28;20207;-85
2023/08/18 08:07:33;;;;;;;28.23;18.70;;;20.80;99.90;;;;;;5068698;28;20569;-84
2023/08/18 08:10:03;;;;;;;28.15;20.20;;;21.00;99.90;;;;;;5067300;28;20605;-84
2023/08/18 08:12:30;;;;;;;28.48;19.48;;;20.90;99.90;;;;;;5076134;28;20213;-84
2023/08/18 08:14:57;;;;;;;29.42;20.52;;;20.60;99.90;;;;;;5077755;28;20868;-84
2023/08/18 08:17:25;;;;;;;33.03;21.48;;;20.70;99.90;;;;;;5078018;28;20289;-83
2023/08/18 08:19:52;;;;;;;28.23;20.35;;;20.60;99.90;;;;;;5079590;28;20230;-83
2023/08/18 08:22:19;;;;;;;29.75;20.35;;;20.70;99.90;;;;;;5081069;28;20199;-84
2023/08/18 08:24:46;;;;;;;26.38;19.33;;;20.80;99.90;;;;;;5070080;28;20290;-84
2023/08/18 08:27:15;;;;;;;29.73;21.05;;;20.80;99.90;;;;;;5074109;28;20198;-84
2023/08/18 08:29:42;;;;;;;29.95;21.10;;;20.80;99.90;;;;;;5077772;28;20256;-83
2023/08/18 08:32:09;;;;;;;28.77;20.77;;;20.90;99.90;;;;;;5076521;28;20209;-84
2023/08/18 08:34:40;;;;;;;30.23;21.70;;;20.90;99.90;;;;;;5078372;28;20204;-84
2023/08/18 08:37:07;;;;;;;27.42;19.98;;;20.90;99.90;;;;;;5079360;28;20259;-83
2023/08/18 08:39:34;;;;;;;27.23;20.33;;;21.10;99.90;;;;;;5078178;28;20249;-84
2023/08/18 08:42:00;;;;;;;26.60;19.13;;;21.10;99.90;;;;;;5080673;28;20309;-84
2023/08/18 08:44:27;;;;;;;25.52;16.88;;;20.80;99.90;;;;;;5081083;28;20191;-84
2023/08/18 08:46:54;;;;;;;23.88;16.67;;;20.90;99.90;;;;;;5068094;28;20207;-84
2023/08/18 08:49:24;;;;;;;26.02;17.48;;;21.00;99.90;;;;;;5074317;28;20308;-82
2023/08/18 08:51:55;;;;;;;25.42;17.60;;;21.00;99.90;;;;;;5070278;28;20289;-83
2023/08/18 08:54:26;;;;;;;23.42;16.25;;;21.10;99.90;;;;;;5070960;28;20207;-85
2023/08/18 08:56:54;;;;;;;23.15;15.48;;;21.30;99.90;;;;;;5079185;28;20270;-83
2023/08/18 08:59:22;;;;;;;21.48;15.73;;;21.70;99.90;;;;;;5076509;28;20233;-83
2023/08/18 09:01:49;;;;;;;24.80;16.92;;;21.60;99.90;;;;;;5073274;28;20231;-83
2023/08/18 09:04:16;;;;;;;25.02;16.88;;;21.60;99.90;;;;;;5076551;28;20265;-84
2023/08/18 09:06:43;;;;;;;23.23;15.73;;;21.70;99.90;;;;;;5072852;28;20656;-84
2023/08/18 09:09:13;;;;;;;21.13;14.88;;;21.70;99.90;;;;;;5073011;28;20259;-83
2023/08/18 09:11:45;;;;;;;20.88;14.52;;;21.80;99.90;;;;;;5071000;28;20570;-83
2023/08/18 09:14:13;;;;;;;21.90;14.55;;;22.00;99.90;;;;;;5074542;28;20664;-83
2023/08/18 09:16:40;;;;;;;22.63;15.48;;;22.00;99.90;;;;;;5067836;28;20229;-84
2023/08/18 09:19:07;;;;;;;21.15;14.18;;;22.30;99.90;;;;;;5070378;28;20245;-84
2023/08/18 09:21:33;;;;;;;20.92;14.57;;;22.70;99.90;;;;;;5076855;28;20249;-84
2023/08/18 09:24:00;;;;;;;25.95;15.18;;;22.80;99.90;;;;;;5067884;28;20648;-83
2023/08/18 09:26:32;;;;;;;19.67;12.52;;;22.90;99.90;;;;;;5070114;28;20651;-84
2023/08/18 09:28:59;;;;;;;16.85;11.60;;;22.90;99.90;;;;;;5078698;28;20226;-83
2023/08/18 09:31:26;;;;;;;17.48;12.25;;;23.40;99.90;;;;;;5077470;28;20199;-82
2023/08/18 09:33:53;;;;;;;15.40;10.73;;;23.40;99.90;;;;;;5070077;28;20206;-82
2023/08/18 09:36:20;;;;;;;18.17;13.10;;;23.80;99.90;;;;;;5077670;28;20206;-82
2023/08/18 09:38:47;;;;;;;16.50;12.05;;;23.60;99.90;;;;;;5070230;28;20230;-82
2023/08/18 09:41:14;;;;;;;16.65;11.98;;;23.70;99.90;;;;;;5069236;28;20222;-81
2023/08/18 09:43:42;;;;;;;15.15;10.82;;;24.30;99.90;;;;;;5069129;28;20224;-81
2023/08/18 09:46:13;;;;;;;15.50;10.93;;;24.60;99.90;;;;;;5075003;28;20199;-82
2023/08/18 09:48:44;;;;;;;15.20;11.38;;;24.50;99.90;;;;;;5071645;28;20278;-83
2023/08/18 09:51:11;;;;;;;13.95;10.15;;;24.50;99.90;;;;;;5078389;28;20213;-83
2023/08/18 09:53:41;;;;;;;16.58;10.77;;;24.60;99.90;;;;;;5078031;28;20265;-83
2023/08/18 09:56:12;;;;;;;14.02;10.15;;;24.90;99.90;;;;;;5077699;28;20289;-80
2023/08/18 09:58:54;;;;;;;11.85;9.88;;;24.80;99.90;;;;;;5071887;28;20227;-81
2023/08/18 10:01:22;;;;;;;15.93;10.20;;;25.10;99.90;;;;;;5070202;28;20218;-83
2023/08/18 10:03:49;;;;;;;11.20;9.40;;;24.80;99.90;;;;;;5073041;28;20515;-83
2023/08/18 10:06:18;;;;;;;10.70;8.38;;;24.70;99.90;;;;;;5072979;28;20210;-81
2023/08/18 10:08:45;;;;;;;11.07;8.65;;;24.90;99.90;;;;;;5068422;28;20248;-81
2023/08/18 10:11:13;;;;;;;9.90;7.60;;;25.20;99.90;;;;;;5070607;28;20255;-81
2023/08/18 10:13:42;;;;;;;9.25;7.88;;;25.30;99.90;;;;;;5072630;28;20217;-81
2023/08/18 10:16:10;;;;;;;8.98;7.60;;;25.80;99.90;;;;;;5075438;28;20229;-82
2023/08/18 10:18:37;;;;;;;8.90;8.00;;;26.50;99.90;;;;;;5072278;28;20289;-82
2023/08/18 10:21:04;;;;;;;8.88;7.97;;;26.50;99.90;;;;;;5074824;28;20305;-82
2023/08/18 10:23:33;;;;;;;8.65;7.30;;;26.70;99.90;;;;;;5070489;28;20206;-82
2023/08/18 10:26:03;;;;;;;8.30;7.20;;;27.00;99.90;;;;;;5078178;28;20737;-82
2023/08/18 10:28:33;;;;;;;10.57;8.80;;;25.90;99.90;;;;;;5074347;28;20244;-80
2023/08/18 10:31:07;;;;;;;9.02;8.13;;;25.70;99.90;;;;;;5077343;28;20199;-80
2023/08/18 10:33:43;;;;;;;10.13;7.82;;;25.70;99.90;;;;;;5069621;28;20203;-81
2023/08/18 10:36:10;;;;;;;9.68;8.05;;;26.40;99.90;;;;;;5072041;28;20716;-81
2023/08/18 10:38:39;;;;;;;8.35;7.45;;;26.70;99.90;;;;;;5070256;28;20226;-81
2023/08/18 10:41:06;;;;;;;9.63;8.18;;;26.70;99.90;;;;;;5079376;28;20253;-82
2023/08/18 10:43:42;;;;;;;8.60;7.63;;;26.40;99.90;;;;;;5071259;28;20205;-82
2023/08/18 10:46:12;;;;;;;13.02;10.95;;;26.80;99.90;;;;;;5069410;28;20230;-81
2023/08/18 10:48:41;;;;;;;10.07;9.00;;;26.80;99.90;;;;;;5074709;28;20297;-81
2023/08/18 10:51:08;;;;;;;8.70;6.80;;;26.90;99.90;;;;;;5070195;28;20202;-81
2023/08/18 10:53:37;;;;;;;8.30;7.50;;;27.30;99.90;;;;;;5072691;28;20293;-81
2023/08/18 10:56:04;;;;;;;9.68;7.40;;;26.90;99.90;;;;;;5075683;28;20206;-81
2023/08/18 10:58:31;;;;;;;8.75;7.95;;;27.10;99.90;;;;;;5075140;28;20235;-82
2023/08/18 11:00:58;;;;;;;9.40;7.60;;;27.50;99.90;;;;;;5079792;28;20223;-81
2023/08/18 11:03:26;;;;;;;7.95;7.15;;;27.70;99.90;;;;;;5069976;28;20206;-83
2023/08/18 11:05:54;;;;;;;8.30;7.45;;;28.40;99.90;;;;;;5080715;28;20272;-82
2023/08/18 11:08:21;;;;;;;8.70;7.88;;;28.40;99.90;;;;;;5076875;28;20241;-82
2023/08/18 11:10:48;;;;;;;8.60;7.80;;;27.90;99.90;;;;;;5072305;28;20207;-82
2023/08/18 11:13:23;;;;;;;9.85;8.02;;;27.50;99.90;;;;;;5077511;28;20591;-83
2023/08/18 11:15:51;;;;;;;8.52;7.63;;;27.30;99.90;;;;;;5062069;28;20656;-82
2023/08/18 11:18:17;;;;;;;8.90;7.90;;;27.30;99.90;;;;;;5081569;28;20202;-82
2023/08/18 11:20:44;;;;;;;8.75;7.85;;;27.30;99.90;;;;;;5080426;28;20212;-83
2023/08/18 11:23:13;;;;;;;8.93;8.02;;;27.30;99.90;;;;;;5078326;28;20188;-83
2023/08/18 11:25:40;;;;;;;8.10;7.32;;;27.80;99.90;;;;;;5072621;28;20233;-83
2023/08/18 11:28:08;;;;;;;8.35;7.45;;;27.70;99.90;;;;;;5076505;28;20202;-82
2023/08/18 11:30:35;;;;;;;9.13;8.02;;;27.70;99.90;;;;;;5077752;28;20210;-82
2023/08/18 11:33:02;;;;;;;9.88;7.57;;;27.50;99.90;;;;;;5076217;28;20626;-83
2023/08/18 11:35:30;;;;;;;9.70;6.97;;;28.40;99.90;;;;;;5083215;28;20194;-84
2023/08/18 11:37:57;;;;;;;8.65;7.82;;;29.20;99.90;;;;;;5080670;28;20583;-83
2023/08/18 11:40:26;;;;;;;9.48;8.57;;;29.20;99.90;;;;;;5078526;28;20222;-83
2023/08/18 11:42:54;;;;;;;8.95;8.07;;;28.30;99.90;;;;;;5078862;28;20594;-83
2023/08/18 11:45:23;;;;;;;8.85;7.85;;;28.20;99.90;;;;;;5074314;28;20213;-82
2023/08/18 11:47:59;;;;;;;11.00;7.90;;;28.70;99.90;;;;;;5067907;28;20213;-83
2023/08/18 11:50:36;;;;;;;10.40;8.10;;;29.30;99.90;;;;;;5061927;28;20313;-83
2023/08/18 11:53:04;;;;;;;12.95;9.88;;;29.20;99.90;;;;;;5073985;28;20202;-82
2023/08/18 11:55:34;;;;;;;11.73;10.52;;;28.30;99.90;;;;;;5071903;28;20238;-82
2023/08/18 11:58:07;;;;;;;10.23;9.23;;;27.80;99.90;;;;;;5074167;28;20285;-83
2023/08/18 12:00:36;;;;;;;11.93;9.93;;;28.50;99.90;;;;;;5073186;28;20199;-83
2023/08/18 12:03:04;;;;;;;11.75;10.20;;;28.20;99.90;;;;;;5082334;28;20215;-83
2023/08/18 12:05:33;;;;;;;10.77;9.68;;;28.20;99.90;;;;;;5071225;28;20209;-82
2023/08/18 12:08:01;;;;;;;10.50;9.40;;;28.50;99.90;;;;;;5079851;28;20586;-82
2023/08/18 12:10:28;;;;;;;11.13;9.52;;;28.80;99.90;;;;;;5072563;28;20226;-85
2023/08/18 12:12:57;;;;;;;12.52;10.88;;;28.30;99.90;;;;;;5074229;28;20199;-82
2023/08/18 12:15:26;;;;;;;11.07;9.57;;;28.00;99.90;;;;;;5078587;28;20203;-82
2023/08/18 12:17:53;;;;;;;11.93;10.07;;;28.20;99.90;;;;;;5077007;28;20554;-83
2023/08/18 12:20:20;;;;;;;13.63;10.80;;;28.60;99.90;;;;;;5072743;28;20218;-82
2023/08/18 12:22:49;;;;;;;14.45;11.70;;;28.60;99.90;;;;;;5076520;28;20222;-82
2023/08/18 12:25:16;;;;;;;12.70;10.98;;;28.80;99.90;;;;;;5077354;28;20206;-83
2023/08/18 12:27:45;;;;;;;15.50;12.32;;;28.20;99.90;;;;;;5070302;28;20209;-84
2023/08/18 12:30:14;;;;;;;12.60;10.48;;;28.40;99.90;;;;;;5075083;28;20246;-83
2023/08/18 12:32:41;;;;;;;12.20;10.90;;;29.20;99.90;;;;;;5074195;28;20278;-83